Aeroporto :
LOGIN :

Iscrizione | Disclaimer

   EN    FR    IT 

 










Sommario :    VFR   VFR Marginale   IFR   IFR Intensivo   IFR Molto Intensivo
Visibilità : 
Base nubi : 
>= 8 km
>= 3000ft
5 / 8 km
1000 / 3000 ft
1500m / 5 km
500 / 1000 ft
800 / 1500m
200 / 500 ft
< 800m
< 200 ft
Simboli :   Temporali  Nebbia  Neve Forte  Precipitazioni Forti  Vento > 20 kt
SIGMETs :   Varie  Temporali  Ghiacco  Turbolenza  Onda orograficha  Ceneri Vulcaniche






- Altitudine del aeroporto : 353 ft
- Codice IATA : CND


LRCK - Constanta

ULTIMO METAR :
  • 030500Z 28005KT 240V310 9999 OVC035 M00/M00 Q1023 R36/29//95 NOSIG

METARs OBSOLETI :
  • 030430Z 29006KT 9999 OVC036 M00/M00 Q1023 R36/29//95 NOSIG
  • 030400Z 29009KT 8000 OVC035 M00/M00 Q1023 R36/29//95 NOSIG
  • 030330Z 30009KT 8000 OVC036 M00/M00 Q1023 R36/29//95 NOSIG
  • 030300Z 30009KT 6000 OVC036 M00/M00 Q1023 R36/29//95 NOSIG
  • 030230Z 29008KT 8000 OVC036 M00/M00 Q1023 R36/29//95 NOSIG

TAF AMD TAF LRCK
Valido dal 03 a 00 ore il 04 a 00 ore UTC


030039Z 0300/0400 32010KT 3000 BR BKN005 BKN040
TEMPO 0300/0305 0800 FZFG BKN002
BECMG 0305/0307 VRB04KT 5000 BKN010 BKN045
BECMG 0307/0309 9999 NSW BKN020 BKN050
BECMG 0316/0318 3000 BR BKN010
BECMG 0318/0320 1500 BR BKN005
TEMPO 0320/0400 0600 FG BKN002



MetMap, La meteo Aeronautica in un colpo d'occhio ! - Copyright ORBIFLY Dicembre 2007 - Disclaimer

ORBIFLY MET'MAP TEAM :

Programmazione e sviluppo : Alexandra Zaïnal
Concezione : Baudouin d'Aumeries
Aiuto per la programmazione : Marc-Olivier Méhu
Supporto tecnico e logistico : Manuel Goepfert
Aiuto per la traduzione : Arnaldo La Scala

Contatto : metmap@orbifly.com




FONTI E CREDITI :

   NOAA